»·PEaware :: NCR9567 KSFO-KSAN

NCR9567 :: KSFO-KSAN

FLIGHT INFORMATION

Flight Status: Arrived
Operator: Unknown
More flights by this operator :: More flights under this callsign
Pilot: Ruben R. (12247)
Aircraft: BOEING 757-200
(B752)
More flights by this aircraft type
Origin: KSFO San Francisco Intl
United States
Destination: KSAN San Diego Intl-Lindbergh
United States
More flights between these airports :: More routes between these airports
Route: +OFFSH1 MCKEY LAX HUBRD1
File this flight plan on PilotEdge
Remarks: twitch.tv / mach3Legend
Altitude:
(Current/Filed)
37,000ft
Speed:
(Current/Filed)
450kts
Departed: 04-Oct-18 07:34 PM
Arrived: 04-Oct-18 08:49 PM
Distance/Time
Traveled:
387nm/1:15
Distance/Time
To Go:
Arrived

Flight Plot

Page will automatically refresh every two minutes.


Map Options




Map Legend


Flown Route
Filed Route
Departure Airport
Arrival Airport
Navaid (VOR, NDB)
Fix

Horizontal Profiles

Position Reports

Time Latitude Longitude Heading Altitude Ground
Speed
04-Oct-18 18:56 37.611238 -122.390367 42 24ft 0kts
04-Oct-18 18:57 37.611238 -122.390367 42 24ft 0kts
04-Oct-18 18:58 37.611238 -122.390367 42 24ft 0kts
04-Oct-18 18:59 37.611238 -122.390367 42 24ft 0kts
04-Oct-18 19:00 37.611238 -122.390367 42 24ft 0kts
04-Oct-18 19:01 37.611238 -122.390367 42 24ft 0kts
04-Oct-18 19:02 37.611238 -122.390367 42 24ft 0kts
04-Oct-18 19:03 37.611238 -122.390367 42 24ft 0kts
04-Oct-18 19:04 37.611238 -122.390367 42 24ft 0kts
04-Oct-18 19:05 37.611238 -122.390367 42 24ft 0kts
04-Oct-18 19:06 37.611238 -122.390367 42 24ft 0kts
04-Oct-18 19:07 37.611238 -122.390367 42 24ft 0kts
04-Oct-18 19:08 37.611238 -122.390367 42 24ft 0kts
04-Oct-18 19:09 37.611238 -122.390367 42 24ft 0kts
04-Oct-18 19:10 37.611238 -122.390367 42 24ft 0kts
04-Oct-18 19:11 37.611238 -122.390367 42 24ft 0kts
04-Oct-18 19:12 37.611238 -122.390367 42 24ft 0kts
04-Oct-18 19:13 37.611238 -122.390367 42 24ft 0kts
04-Oct-18 19:14 37.611238 -122.390367 42 24ft 0kts
04-Oct-18 19:15 37.611233 -122.390373 43 24ft 1kts
04-Oct-18 19:16 37.610888 -122.390965 84 24ft 2kts
04-Oct-18 19:17 37.611089 -122.391540 143 24ft 1kts
04-Oct-18 19:18 37.611103 -122.391554 142 24ft 0kts
04-Oct-18 19:19 37.611103 -122.391554 142 24ft 0kts
04-Oct-18 19:20 37.611103 -122.391554 142 24ft 0kts
04-Oct-18 19:21 37.611103 -122.391554 142 24ft 0kts
04-Oct-18 19:22 37.611103 -122.391554 142 24ft 0kts
04-Oct-18 19:23 37.611103 -122.391554 142 24ft 0kts
04-Oct-18 19:24 37.611103 -122.391554 142 24ft 0kts
04-Oct-18 19:25 37.610597 -122.390692 130 24ft 5kts
04-Oct-18 19:26 37.610235 -122.389119 50 24ft 5kts
04-Oct-18 19:27 37.611041 -122.387781 115 24ft 5kts
04-Oct-18 19:28 37.610347 -122.386053 118 24ft 5kts
04-Oct-18 19:29 37.609990 -122.385256 118 24ft 0kts
04-Oct-18 19:30 37.609990 -122.385256 118 24ft 0kts
04-Oct-18 19:31 37.609920 -122.385091 118 24ft 4kts
04-Oct-18 19:32 37.608018 -122.384987 180 24ft 13kts
04-Oct-18 19:33 37.605970 -122.382898 38 24ft 7kts
04-Oct-18 19:34 37.606822 -122.382159 66 24ft 0kts
04-Oct-18 19:35 37.606659 -122.381382 114 24ft 6kts
04-Oct-18 19:36 37.612234 -122.377202 27 24ft 106kts
04-Oct-18 19:37 37.653031 -122.370591 333 1492ft 187kts
04-Oct-18 19:38 37.701519 -122.408658 296 2954ft 251kts
04-Oct-18 19:39 37.681449 -122.484328 219 6037ft 257kts
04-Oct-18 19:40 37.633793 -122.552170 233 8877ft 268kts
04-Oct-18 19:41 37.588813 -122.634518 236 10382ft 328kts
04-Oct-18 19:42 37.536803 -122.733885 232 13052ft 351kts
04-Oct-18 19:43 37.449190 -122.774948 167 15774ft 365kts
04-Oct-18 19:44 37.361816 -122.708635 156 18231ft 379kts
04-Oct-18 19:45 37.259667 -122.670397 167 18912ft 386kts
04-Oct-18 19:46 37.153898 -122.641348 168 21163ft 397kts
04-Oct-18 19:47 37.044645 -122.612619 168 23124ft 409kts
04-Oct-18 19:48 36.932163 -122.583263 168 24915ft 420kts
04-Oct-18 19:49 36.817543 -122.553464 168 26492ft 432kts
04-Oct-18 19:50 36.698987 -122.522731 168 27933ft 442kts
04-Oct-18 19:51 36.577871 -122.491432 168 29243ft 452kts
04-Oct-18 19:52 36.454265 -122.456826 159 30439ft 461kts
04-Oct-18 19:53 36.354247 -122.360381 130 31503ft 471kts
04-Oct-18 19:54 36.282769 -122.230113 126 32722ft 471kts
04-Oct-18 19:55 36.201969 -122.103583 130 33973ft 468kts
04-Oct-18 19:56 36.118376 -121.981079 131 35053ft 466kts
04-Oct-18 19:57 36.034675 -121.860063 131 35914ft 465kts
04-Oct-18 19:58 35.951002 -121.739692 131 36494ft 464kts
04-Oct-18 19:59 35.869213 -121.622467 131 36902ft 465kts
04-Oct-18 20:00 35.786189 -121.503892 131 36980ft 464kts
04-Oct-18 20:01 35.701200 -121.382931 131 36932ft 464kts
04-Oct-18 20:02 35.620866 -121.268986 132 36929ft 464kts
04-Oct-18 20:03 35.538023 -121.151883 132 36929ft 464kts
04-Oct-18 20:04 35.458313 -121.029053 126 36955ft 466kts
04-Oct-18 20:05 35.385206 -120.899967 125 36963ft 465kts
04-Oct-18 20:06 35.312303 -120.771413 125 37006ft 465kts
04-Oct-18 20:07 35.239653 -120.643737 125 37006ft 465kts
04-Oct-18 20:08 35.166552 -120.515731 125 37007ft 466kts
04-Oct-18 20:09 35.092576 -120.386663 125 37007ft 466kts
04-Oct-18 20:10 35.025469 -120.270030 125 37006ft 468kts
04-Oct-18 20:11 34.954385 -120.146866 125 36984ft 471kts
04-Oct-18 20:12 34.881196 -120.019519 123 36979ft 471kts
04-Oct-18 20:13 34.834107 -119.935746 124 36979ft 471kts
04-Oct-18 20:14 34.747745 -119.786556 125 36978ft 471kts
04-Oct-18 20:15 34.672221 -119.657380 125 36926ft 471kts
04-Oct-18 20:16 34.596487 -119.528392 125 36926ft 471kts
04-Oct-18 20:17 34.521837 -119.401714 125 36926ft 471kts
04-Oct-18 20:18 34.464609 -119.304904 125 36949ft 471kts
04-Oct-18 20:19 34.387345 -119.174630 125 36953ft 468kts
04-Oct-18 20:20 34.325907 -119.071346 125 36953ft 471kts
04-Oct-18 20:21 34.239625 -118.926837 125 36672ft 458kts
04-Oct-18 20:22 34.181402 -118.829640 125 32313ft 469kts
04-Oct-18 20:23 34.114417 -118.718148 125 29168ft 449kts
04-Oct-18 20:24 34.045065 -118.603062 124 27085ft 435kts
04-Oct-18 20:25 33.980493 -118.496242 124 25205ft 420kts
04-Oct-18 20:26 33.916983 -118.399650 131 24574ft 415kts
04-Oct-18 20:27 33.850510 -118.313617 132 24545ft 414kts
04-Oct-18 20:28 33.783283 -118.227479 132 24193ft 409kts
04-Oct-18 20:29 33.713918 -118.138844 132 23627ft 408kts
04-Oct-18 20:30 33.638848 -118.043194 132 21185ft 390kts
04-Oct-18 20:31 33.567465 -117.952477 132 18824ft 377kts
04-Oct-18 20:32 33.495681 -117.861484 132 18605ft 378kts
04-Oct-18 20:33 33.423959 -117.770804 132 18372ft 378kts
04-Oct-18 20:34 33.353133 -117.681486 132 18375ft 379kts
04-Oct-18 20:35 33.280866 -117.590584 132 17828ft 377kts
04-Oct-18 20:36 33.210814 -117.502692 132 16561ft 370kts
04-Oct-18 20:37 33.140441 -117.417728 145 14893ft 360kts
04-Oct-18 20:38 33.050754 -117.365077 154 12861ft 359kts
04-Oct-18 20:39 32.967640 -117.318818 155 11442ft 343kts
04-Oct-18 20:40 32.894975 -117.278541 156 10597ft 315kts
04-Oct-18 20:41 32.845884 -117.214654 118 10119ft 284kts
04-Oct-18 20:42 32.813611 -117.135373 115 8982ft 276kts
04-Oct-18 20:43 32.782927 -117.055836 108 7751ft 271kts
04-Oct-18 20:44 32.762876 -116.972861 104 5985ft 260kts
04-Oct-18 20:45 32.711972 -116.943517 205 5631ft 230kts
04-Oct-18 20:46 32.688024 -116.997342 282 5175ft 163kts
04-Oct-18 20:47 32.700526 -117.053088 284 2674ft 195kts
04-Oct-18 20:48 32.712458 -117.102120 285 1852ft 148kts
04-Oct-18 20:49 32.722791 -117.145785 287 720ft 138kts
04-Oct-18 20:50 32.732856 -117.186856 286 25ft 108kts
04-Oct-18 20:51 32.734080 -117.195507 261 24ft 9kts
04-Oct-18 20:52 32.734476 -117.197815 285 23ft 6kts
04-Oct-18 20:53 32.735039 -117.200049 286 23ft 8kts
04-Oct-18 20:54 32.735722 -117.202788 285 21ft 9kts
04-Oct-18 20:55 32.735161 -117.204978 229 21ft 6kts
04-Oct-18 20:56 32.733371 -117.205549 179 21ft 5kts
04-Oct-18 20:57 32.732458 -117.205358 175 21ft 0kts

Navigation Log

Ident Type
Flight plan parsing failed, navigation log unavailable